createdAt,value
2023-02-13T00:01:16.769Z,2.70
2023-02-13T00:04:05.859Z,2.70
2023-02-13T00:06:54.956Z,2.50
2023-02-13T00:09:42.693Z,2.50
2023-02-13T00:12:31.284Z,2.40
2023-02-13T00:15:19.660Z,2.30
2023-02-13T00:18:07.854Z,2.30
2023-02-13T00:20:59.330Z,2.30
2023-02-13T00:23:48.238Z,2.50
2023-02-13T00:26:35.467Z,4.00
2023-02-13T00:29:23.323Z,2.40
2023-02-13T00:32:12.530Z,2.40
2023-02-13T00:35:00.803Z,2.50
2023-02-13T00:37:49.282Z,2.50
2023-02-13T00:40:38.217Z,2.50
2023-02-13T00:43:28.544Z,2.60
2023-02-13T00:46:18.260Z,2.60
2023-02-13T00:49:06.667Z,2.50
2023-02-13T00:51:55.349Z,2.50
2023-02-13T00:54:43.566Z,2.50
2023-02-13T00:57:32.476Z,2.50
2023-02-13T01:00:20.243Z,2.50
2023-02-13T01:03:08.951Z,2.40
2023-02-13T01:05:57.565Z,2.40
2023-02-13T01:08:49.386Z,2.40
2023-02-13T01:11:37.150Z,2.30
2023-02-13T01:14:26.684Z,2.10
2023-02-13T01:17:14.588Z,2.00
2023-02-13T01:20:02.819Z,2.00
2023-02-13T01:22:50.260Z,1.90
2023-02-13T01:25:40.868Z,4.80
2023-02-13T01:28:29.409Z,1.90
2023-02-13T01:31:18.537Z,1.80
2023-02-13T01:34:06.955Z,1.70
2023-02-13T01:36:54.852Z,2.80
2023-02-13T01:39:43.207Z,1.60
2023-02-13T01:42:35.567Z,1.60
2023-02-13T01:45:27.513Z,1.60
2023-02-13T01:48:17.973Z,1.50
2023-02-13T01:51:08.098Z,1.50
2023-02-13T01:53:59.919Z,1.40
2023-02-13T01:56:50.055Z,1.40
2023-02-13T01:59:43.038Z,1.20
2023-02-13T02:02:32.976Z,1.10
2023-02-13T02:05:25.690Z,1.10
2023-02-13T02:08:16.081Z,0.90
2023-02-13T02:11:06.805Z,1.00
2023-02-13T02:13:55.518Z,0.90
2023-02-13T02:16:53.984Z,1.00
2023-02-13T02:19:45.352Z,1.00
2023-02-13T02:22:51.314Z,1.10
2023-02-13T02:25:56.926Z,-0.70
2023-02-13T02:29:01.763Z,1.30
2023-02-13T02:32:07.724Z,1.30
2023-02-13T02:35:01.221Z,1.30
2023-02-13T02:37:57.240Z,1.30
2023-02-13T02:40:55.735Z,1.30
2023-02-13T02:43:50.189Z,1.30
2023-02-13T02:47:00.582Z,-0.40
2023-02-13T02:50:02.190Z,1.40
2023-02-13T02:52:57.734Z,1.30
2023-02-13T02:55:50.411Z,1.30
2023-02-13T02:58:56.980Z,1.20
2023-02-13T03:02:04.876Z,1.10
2023-02-13T03:05:11.664Z,1.10
2023-02-13T03:08:01.013Z,4.50
2023-02-13T03:11:08.740Z,1.10
2023-02-13T03:13:56.915Z,1.10
2023-02-13T03:17:01.588Z,1.10
2023-02-13T03:20:14.706Z,1.10
2023-02-13T03:23:10.836Z,1.10
2023-02-13T03:26:06.861Z,1.00
2023-02-13T03:29:24.832Z,1.00
2023-02-13T03:32:15.567Z,1.00
2023-02-13T03:35:26.355Z,0.90
2023-02-13T03:38:18.413Z,0.90
2023-02-13T03:41:22.070Z,0.80
2023-02-13T03:44:13.200Z,0.70
2023-02-13T03:47:02.669Z,0.70
2023-02-13T03:50:08.110Z,0.60
2023-02-13T03:52:58.030Z,0.60
2023-02-13T03:56:06.078Z,0.50
2023-02-13T03:59:13.180Z,0.30
2023-02-13T04:02:03.941Z,0.40
2023-02-13T04:04:52.782Z,0.40
2023-02-13T04:07:40.132Z,0.40
2023-02-13T04:10:29.661Z,0.30
2023-02-13T04:13:20.536Z,0.30
2023-02-13T04:16:11.935Z,0.20
2023-02-13T04:19:01.111Z,0.20
2023-02-13T04:21:51.415Z,0.10
2023-02-13T04:24:38.712Z,0.10
2023-02-13T04:27:26.954Z,0.10
2023-02-13T04:30:16.846Z,0.20
2023-02-13T04:33:06.353Z,0.10
2023-02-13T04:35:53.928Z,0.00
2023-02-13T04:38:41.869Z,0.00
2023-02-13T04:41:29.411Z,-0.20
2023-02-13T04:44:17.239Z,-0.10
2023-02-13T04:47:06.550Z,-0.60
2023-02-13T04:49:54.345Z,-0.10
2023-02-13T04:52:42.488Z,0.10
2023-02-13T04:55:30.728Z,-0.20
2023-02-13T04:58:18.775Z,-0.20
2023-02-13T05:01:12.692Z,-0.20
2023-02-13T05:04:02.214Z,-0.20
2023-02-13T05:06:49.586Z,-0.20
2023-02-13T05:09:36.877Z,-0.30
2023-02-13T05:12:24.723Z,-0.20
2023-02-13T05:15:12.330Z,-0.30
2023-02-13T05:17:59.410Z,-0.30
2023-02-13T05:21:09.522Z,-0.40
2023-02-13T05:23:55.843Z,-0.30
2023-02-13T05:26:43.763Z,-0.30
2023-02-13T05:29:31.223Z,-0.30
2023-02-13T05:32:19.819Z,-0.30
2023-02-13T05:35:07.706Z,-0.30
2023-02-13T05:37:57.032Z,-0.30
2023-02-13T05:40:44.831Z,-0.30
2023-02-13T05:43:32.600Z,-0.30
2023-02-13T05:46:20.656Z,-0.20
2023-02-13T05:49:09.330Z,-0.20
2023-02-13T05:51:58.566Z,-0.20
2023-02-13T05:54:48.085Z,-0.20
2023-02-13T05:57:35.636Z,-0.20
2023-02-13T06:00:23.424Z,-0.30
2023-02-13T06:03:11.552Z,-0.30
2023-02-13T06:05:59.469Z,-0.30
2023-02-13T06:08:47.248Z,-0.30
2023-02-13T06:11:36.694Z,-0.30
2023-02-13T06:14:26.252Z,-0.20
2023-02-13T06:17:14.202Z,-0.20
2023-02-13T06:20:02.814Z,-0.30
2023-02-13T06:22:50.901Z,-0.40
2023-02-13T06:25:38.656Z,-0.50
2023-02-13T06:28:27.744Z,-0.50
2023-02-13T06:31:15.533Z,-2.30
2023-02-13T06:34:03.722Z,-0.60
2023-02-13T06:36:53.017Z,-0.80
2023-02-13T06:39:45.621Z,-0.50
2023-02-13T06:42:33.409Z,-0.40
2023-02-13T06:45:23.348Z,-0.40
2023-02-13T06:48:12.135Z,-0.60
2023-02-13T06:51:01.940Z,-0.70
2023-02-13T06:53:49.606Z,-0.80
2023-02-13T06:56:37.116Z,-0.90
2023-02-13T06:59:24.847Z,-0.80
2023-02-13T07:02:14.625Z,-0.90
2023-02-13T07:05:02.672Z,-1.00
2023-02-13T07:07:50.512Z,-0.90
2023-02-13T07:10:38.818Z,-0.90
2023-02-13T07:13:27.147Z,-0.90
2023-02-13T07:16:15.235Z,-0.90
2023-02-13T07:19:04.290Z,-0.90
2023-02-13T07:21:52.318Z,-0.90
2023-02-13T07:24:39.942Z,-1.30
2023-02-13T07:27:29.695Z,-0.80
2023-02-13T07:30:18.188Z,-0.70
2023-02-13T07:33:06.759Z,-0.70
2023-02-13T07:35:55.485Z,-0.60
2023-02-13T07:38:45.979Z,-0.50
2023-02-13T07:41:33.955Z,-0.40
2023-02-13T07:44:21.550Z,-0.40
2023-02-13T07:47:09.014Z,-0.30
2023-02-13T07:49:56.737Z,-0.30
2023-02-13T07:52:45.888Z,-0.30
2023-02-13T07:55:33.206Z,-0.20
2023-02-13T07:58:20.559Z,0.00
2023-02-13T08:01:09.005Z,0.00
2023-02-13T08:03:56.503Z,0.00
2023-02-13T08:06:45.984Z,0.10
2023-02-13T08:09:52.542Z,0.10
2023-02-13T08:12:40.386Z,0.30
2023-02-13T08:15:29.365Z,0.20
2023-02-13T08:18:18.854Z,0.10
2023-02-13T08:21:07.584Z,0.20
2023-02-13T08:23:54.952Z,-0.20
2023-02-13T08:26:44.022Z,0.30
2023-02-13T08:29:31.858Z,0.30
2023-02-13T08:32:19.521Z,0.40
2023-02-13T08:35:07.703Z,0.40
2023-02-13T08:37:55.612Z,0.50
2023-02-13T08:40:43.366Z,0.60
2023-02-13T08:43:36.173Z,0.90
2023-02-13T08:46:24.358Z,0.80
2023-02-13T08:49:11.886Z,0.90
2023-02-13T08:52:01.049Z,1.00
2023-02-13T08:54:48.911Z,1.20
2023-02-13T08:57:39.680Z,1.30
2023-02-13T09:00:30.035Z,1.40
2023-02-13T09:03:17.930Z,1.60
2023-02-13T09:06:05.858Z,1.70
2023-02-13T09:08:53.593Z,1.90
2023-02-13T09:11:42.213Z,2.00
2023-02-13T09:14:30.057Z,2.70
2023-02-13T09:17:19.995Z,2.20
2023-02-13T09:20:08.306Z,2.40
2023-02-13T09:22:56.599Z,2.50
2023-02-13T09:25:45.006Z,2.70
2023-02-13T09:28:33.370Z,2.90
2023-02-13T09:31:21.533Z,3.00
2023-02-13T09:34:10.863Z,3.10
2023-02-13T09:36:58.268Z,3.30
2023-02-13T09:39:46.012Z,3.30
2023-02-13T09:42:36.998Z,3.30
2023-02-13T09:45:24.551Z,3.90
2023-02-13T09:48:17.396Z,3.90
2023-02-13T09:51:07.172Z,3.80
2023-02-13T09:53:56.171Z,3.90
2023-02-13T09:56:52.725Z,4.20
2023-02-13T09:59:45.017Z,4.10
2023-02-13T10:02:38.651Z,4.00
2023-02-13T10:05:36.906Z,4.30
2023-02-13T10:08:34.370Z,4.30
2023-02-13T10:11:31.243Z,4.20
2023-02-13T10:14:23.436Z,4.50
2023-02-13T10:17:14.012Z,4.70
2023-02-13T10:20:04.482Z,4.90
2023-02-13T10:22:53.643Z,5.00
2023-02-13T10:25:46.114Z,5.20
2023-02-13T10:28:36.139Z,5.30
2023-02-13T10:31:25.119Z,5.40
2023-02-13T10:34:14.574Z,5.40
2023-02-13T10:37:02.503Z,5.50
2023-02-13T10:39:51.263Z,5.50
2023-02-13T10:42:44.512Z,5.60
2023-02-13T10:45:48.053Z,5.80
2023-02-13T10:48:44.204Z,7.80
2023-02-13T10:51:36.109Z,5.80
2023-02-13T10:54:31.013Z,5.90
2023-02-13T10:57:21.468Z,6.00
2023-02-13T11:00:14.352Z,6.10
2023-02-13T11:03:01.839Z,6.30
2023-02-13T11:05:50.695Z,6.80
2023-02-13T11:08:40.799Z,6.50
2023-02-13T11:11:32.865Z,6.50
2023-02-13T11:14:21.948Z,6.60
2023-02-13T11:17:19.327Z,6.80
2023-02-13T11:20:08.494Z,6.80
2023-02-13T11:22:56.721Z,6.80
2023-02-13T11:25:54.491Z,7.00
2023-02-13T11:28:48.365Z,7.30
2023-02-13T11:31:36.696Z,7.60
2023-02-13T11:34:29.286Z,7.70
2023-02-13T11:37:21.641Z,8.00
2023-02-13T11:40:25.935Z,7.70
2023-02-13T11:43:19.935Z,7.80
2023-02-13T11:46:09.541Z,7.80
2023-02-13T11:48:58.570Z,8.30
2023-02-13T11:51:52.345Z,8.30
2023-02-13T11:54:41.703Z,8.60
2023-02-13T11:57:31.413Z,9.50
2023-02-13T12:00:30.642Z,9.10
2023-02-13T12:03:29.565Z,9.40
2023-02-13T12:06:18.678Z,9.60
2023-02-13T12:09:12.648Z,9.80
2023-02-13T12:12:05.832Z,10.10
2023-02-13T12:14:54.665Z,10.90
2023-02-13T12:17:43.566Z,9.30
2023-02-13T12:20:35.796Z,11.00
2023-02-13T12:23:29.293Z,10.90
2023-02-13T12:26:28.110Z,11.00
2023-02-13T12:29:30.389Z,10.80
2023-02-13T12:32:20.784Z,10.80
2023-02-13T12:35:32.195Z,11.40
2023-02-13T12:38:26.284Z,11.90
2023-02-13T12:41:17.409Z,11.20
2023-02-13T12:44:16.914Z,11.40
2023-02-13T12:47:09.957Z,11.50
2023-02-13T12:50:08.575Z,11.30
2023-02-13T12:53:03.252Z,11.00
2023-02-13T12:56:02.668Z,11.00
2023-02-13T12:59:02.840Z,11.20
2023-02-13T13:01:59.165Z,10.70
2023-02-13T13:04:54.344Z,10.90
2023-02-13T13:07:49.378Z,11.40
2023-02-13T13:10:43.880Z,10.70
2023-02-13T13:13:40.127Z,10.60
2023-02-13T13:16:30.337Z,10.60
2023-02-13T13:19:25.210Z,10.80
2023-02-13T13:22:14.716Z,13.50
2023-02-13T13:25:04.716Z,11.00
2023-02-13T13:27:55.065Z,11.00
2023-02-13T13:30:43.892Z,10.90
2023-02-13T13:33:32.256Z,10.90
2023-02-13T13:36:29.141Z,11.40
2023-02-13T13:39:21.834Z,11.20
2023-02-13T13:42:13.679Z,11.50
2023-02-13T13:45:19.256Z,11.30
2023-02-13T13:48:34.065Z,11.50
2023-02-13T13:51:23.543Z,11.70
2023-02-13T13:54:25.725Z,12.00
2023-02-13T13:57:15.176Z,12.70
2023-02-13T14:00:23.903Z,12.80
2023-02-13T14:03:23.722Z,13.10
2023-02-13T14:06:12.277Z,13.50
2023-02-13T14:09:06.393Z,13.40
2023-02-13T14:11:54.589Z,13.80
2023-02-13T14:14:46.312Z,14.40
2023-02-13T14:17:51.544Z,15.00
2023-02-13T14:20:41.860Z,15.30
2023-02-13T14:23:39.058Z,15.80
2023-02-13T14:26:50.334Z,14.90
2023-02-13T14:29:48.883Z,15.60
2023-02-13T14:32:38.155Z,15.30
2023-02-13T14:35:29.403Z,15.30
2023-02-13T14:38:23.190Z,15.40
2023-02-13T14:41:25.518Z,15.80
2023-02-13T14:44:17.632Z,16.70
2023-02-13T14:47:16.770Z,16.30
2023-02-13T14:50:07.110Z,15.90
2023-02-13T14:52:55.696Z,16.00
2023-02-13T14:55:45.639Z,16.20
2023-02-13T14:58:34.140Z,16.30
2023-02-13T15:01:31.593Z,16.30
2023-02-13T15:04:24.065Z,15.40
2023-02-13T15:07:16.149Z,14.90
2023-02-13T15:10:06.198Z,15.10
2023-02-13T15:12:58.396Z,13.90
2023-02-13T15:15:46.859Z,13.60
2023-02-13T15:18:37.875Z,12.90
2023-02-13T15:21:33.182Z,12.60
2023-02-13T15:24:22.991Z,12.30
2023-02-13T15:27:18.028Z,12.00
2023-02-13T15:30:07.141Z,11.80
2023-02-13T15:32:55.646Z,11.70
2023-02-13T15:35:46.408Z,11.50
2023-02-13T15:38:37.198Z,11.30
2023-02-13T15:41:26.329Z,11.30
2023-02-13T15:44:18.352Z,11.10
2023-02-13T15:47:07.441Z,11.10
2023-02-13T15:49:55.861Z,10.90
2023-02-13T15:52:46.073Z,10.40
2023-02-13T15:55:36.895Z,10.80
2023-02-13T15:58:27.731Z,10.60
2023-02-13T16:01:16.128Z,10.50
2023-02-13T16:04:04.911Z,10.50
2023-02-13T16:06:57.796Z,10.30
2023-02-13T16:09:45.807Z,10.40
2023-02-13T16:12:34.730Z,10.30
2023-02-13T16:15:23.137Z,10.20
2023-02-13T16:18:21.010Z,10.00
2023-02-13T16:21:09.310Z,9.80
2023-02-13T16:23:59.545Z,9.70
2023-02-13T16:26:47.338Z,9.60
2023-02-13T16:29:37.122Z,9.40
2023-02-13T16:32:28.145Z,9.20
2023-02-13T16:35:19.870Z,9.10
2023-02-13T16:38:21.890Z,9.00
2023-02-13T16:41:28.977Z,8.80
2023-02-13T16:44:30.457Z,8.70
2023-02-13T16:47:23.434Z,8.50
2023-02-13T16:50:15.063Z,8.80
2023-02-13T16:53:03.452Z,8.30
2023-02-13T16:55:58.043Z,8.10
2023-02-13T16:58:46.172Z,8.00
2023-02-13T17:01:33.871Z,8.00
2023-02-13T17:04:26.756Z,7.90
2023-02-13T17:07:16.120Z,8.30
2023-02-13T17:10:04.220Z,8.00
2023-02-13T17:12:52.727Z,7.90
2023-02-13T17:15:42.825Z,7.80
2023-02-13T17:18:31.307Z,7.80
2023-02-13T17:21:21.313Z,7.70
2023-02-13T17:24:09.684Z,7.60
2023-02-13T17:27:00.374Z,8.50
2023-02-13T17:29:50.600Z,7.60
2023-02-13T17:32:38.245Z,7.30
2023-02-13T17:35:25.780Z,7.20
2023-02-13T17:38:15.469Z,7.10
2023-02-13T17:41:03.065Z,7.00
2023-02-13T17:43:51.008Z,6.90
2023-02-13T17:46:39.282Z,6.80
2023-02-13T17:49:27.339Z,6.90
2023-02-13T17:52:17.283Z,6.80
2023-02-13T17:55:07.979Z,6.80
2023-02-13T17:57:58.164Z,6.90
2023-02-13T18:00:50.785Z,6.70
2023-02-13T18:03:39.534Z,6.70
2023-02-13T18:06:27.073Z,6.60
2023-02-13T18:09:19.457Z,6.50
2023-02-13T18:12:09.430Z,6.60
2023-02-13T18:15:00.101Z,7.20
2023-02-13T18:17:47.964Z,6.60
2023-02-13T18:20:35.440Z,7.00
2023-02-13T18:23:23.591Z,6.40
2023-02-13T18:26:12.021Z,6.40
2023-02-13T18:29:01.082Z,6.30
2023-02-13T18:31:51.866Z,6.20
2023-02-13T18:34:41.193Z,6.20
2023-02-13T18:37:30.282Z,6.20
2023-02-13T18:40:18.619Z,6.10
2023-02-13T18:43:06.921Z,6.10
2023-02-13T18:45:57.038Z,6.00
2023-02-13T18:48:44.781Z,5.90
2023-02-13T18:51:32.297Z,5.70
2023-02-13T18:54:20.037Z,5.70
2023-02-13T18:57:08.489Z,5.60
2023-02-13T18:59:56.811Z,5.50
2023-02-13T19:02:48.404Z,5.50
2023-02-13T19:05:41.850Z,5.40
2023-02-13T19:08:30.106Z,5.40
2023-02-13T19:11:20.166Z,5.30
2023-02-13T19:14:11.586Z,5.40
2023-02-13T19:16:59.317Z,5.20
2023-02-13T19:19:51.953Z,5.60
2023-02-13T19:22:39.513Z,5.60
2023-02-13T19:25:27.654Z,5.60
2023-02-13T19:28:15.166Z,5.60
2023-02-13T19:31:08.467Z,5.70
2023-02-13T19:33:56.983Z,5.40
2023-02-13T19:36:49.080Z,8.40
2023-02-13T19:39:36.791Z,5.40
2023-02-13T19:42:24.340Z,5.50
2023-02-13T19:45:12.159Z,5.20
2023-02-13T19:47:59.934Z,5.20
2023-02-13T19:50:47.671Z,5.30
2023-02-13T19:53:37.036Z,5.10
2023-02-13T19:56:27.818Z,5.00
2023-02-13T19:59:18.847Z,7.90
2023-02-13T20:02:09.734Z,4.80
2023-02-13T20:04:58.220Z,4.90
2023-02-13T20:07:46.612Z,4.80
2023-02-13T20:10:35.929Z,4.50
2023-02-13T20:13:24.213Z,4.80
2023-02-13T20:16:13.360Z,4.90
2023-02-13T20:19:06.581Z,4.60
2023-02-13T20:21:54.841Z,4.50
2023-02-13T20:24:42.414Z,4.40
2023-02-13T20:27:32.074Z,4.30
2023-02-13T20:30:20.141Z,4.20
2023-02-13T20:33:08.127Z,4.30
2023-02-13T20:35:55.975Z,3.80
2023-02-13T20:38:44.539Z,3.90
2023-02-13T20:41:33.717Z,3.80
2023-02-13T20:44:25.240Z,3.70
2023-02-13T20:47:13.002Z,2.80
2023-02-13T20:50:00.735Z,3.20
2023-02-13T20:52:49.225Z,3.50
2023-02-13T20:55:37.172Z,3.50
2023-02-13T20:58:28.330Z,3.30
2023-02-13T21:01:20.401Z,1.30
2023-02-13T21:04:11.512Z,3.40
2023-02-13T21:07:00.145Z,3.30
2023-02-13T21:09:51.405Z,0.90
2023-02-13T21:12:40.097Z,3.10
2023-02-13T21:15:29.442Z,3.10
2023-02-13T21:18:22.584Z,3.00
2023-02-13T21:21:11.254Z,2.90
2023-02-13T21:24:00.272Z,3.00
2023-02-13T21:26:49.463Z,2.90
2023-02-13T21:29:39.102Z,2.80
2023-02-13T21:32:50.050Z,2.80
2023-02-13T21:35:43.100Z,2.70
2023-02-13T21:38:31.411Z,3.30
2023-02-13T21:41:22.059Z,2.70
2023-02-13T21:44:16.021Z,2.70
2023-02-13T21:47:06.746Z,2.70
2023-02-13T21:49:55.676Z,2.70
2023-02-13T21:52:45.256Z,2.70
2023-02-13T21:55:32.957Z,3.10
2023-02-13T21:58:23.565Z,2.70
2023-02-13T22:01:23.960Z,2.70
2023-02-13T22:04:16.057Z,2.70
2023-02-13T22:07:07.044Z,2.00
2023-02-13T22:09:58.281Z,2.70
2023-02-13T22:12:47.259Z,2.60
2023-02-13T22:15:36.637Z,2.60
2023-02-13T22:18:24.648Z,2.50
2023-02-13T22:21:14.617Z,2.50
2023-02-13T22:24:02.666Z,2.40
2023-02-13T22:26:51.738Z,-0.40
2023-02-13T22:29:41.179Z,2.40
2023-02-13T22:32:29.092Z,-0.80
2023-02-13T22:35:16.739Z,2.50
2023-02-13T22:38:06.461Z,2.40
2023-02-13T22:40:54.795Z,2.50
2023-02-13T22:43:45.120Z,2.60
2023-02-13T22:46:33.357Z,2.70
2023-02-13T22:49:21.402Z,2.80
2023-02-13T22:52:12.150Z,2.80
2023-02-13T22:55:02.618Z,2.90
2023-02-13T22:57:54.648Z,2.90
2023-02-13T23:00:44.266Z,4.30
2023-02-13T23:03:34.262Z,3.20
2023-02-13T23:06:22.161Z,3.20
2023-02-13T23:09:09.672Z,4.10
2023-02-13T23:12:15.112Z,3.30
2023-02-13T23:15:07.153Z,3.30
2023-02-13T23:18:15.451Z,3.30
2023-02-13T23:21:05.324Z,3.00
2023-02-13T23:23:55.299Z,3.40
2023-02-13T23:26:42.804Z,3.40
2023-02-13T23:29:30.973Z,4.60
2023-02-13T23:32:18.655Z,3.50
2023-02-13T23:35:09.545Z,3.50
2023-02-13T23:37:57.212Z,3.50
2023-02-13T23:40:47.470Z,3.50
2023-02-13T23:43:35.392Z,3.50
2023-02-13T23:46:23.794Z,3.50
2023-02-13T23:49:12.608Z,3.30
2023-02-13T23:52:02.274Z,5.50
2023-02-13T23:54:50.019Z,3.10
2023-02-13T23:57:38.007Z,3.10
